Time;durP1;ratioP1;P1;durP2;ratioP2;P2;SDS_P1;SDS_P2;PMS_P1;PMS_P2;Temp;Humidity;BMP_temperature;BMP_pressure;BME280_temperature;BME280_humidity;BME280_pressure;Samples;Min_cycle;Max_cycle;Signal;HPM_P1;HPM_P2
2021/01/08 00:01:40;;;;;;;8.13;4.60;;;-1.40;99.90;;;;;;5032973;28;20075;-73
2021/01/08 00:04:06;;;;;;;9.80;4.50;;;-1.80;99.90;;;;;;5031375;28;20029;-73
2021/01/08 00:06:32;;;;;;;8.02;4.38;;;-1.70;99.90;;;;;;5031128;28;20056;-73
2021/01/08 00:08:58;;;;;;;9.23;4.07;;;-1.90;99.90;;;;;;5031141;28;20517;-73
2021/01/08 00:11:24;;;;;;;8.03;3.53;;;-1.60;99.90;;;;;;5031231;28;20029;-73
2021/01/08 00:13:50;;;;;;;6.90;4.07;;;-1.70;99.90;;;;;;5040656;28;20434;-73
2021/01/08 00:16:16;;;;;;;7.73;3.73;;;-1.80;99.90;;;;;;5033819;28;20056;-73
2021/01/08 00:18:44;;;;;;;9.43;4.83;;;-1.80;99.90;;;;;;5050256;28;20471;-73
2021/01/08 00:21:10;;;;;;;8.07;5.03;;;-1.70;99.90;;;;;;5047022;28;20029;-72
2021/01/08 00:23:35;;;;;;;10.37;4.77;;;-1.60;99.90;;;;;;5030292;28;20388;-73
2021/01/08 00:26:01;;;;;;;7.83;4.27;;;-1.50;99.90;;;;;;5033162;28;20049;-73
2021/01/08 00:28:27;;;;;;;7.60;3.97;;;-1.50;99.90;;;;;;5034917;28;20068;-73
2021/01/08 00:30:52;;;;;;;10.05;4.43;;;-1.70;99.90;;;;;;5037552;28;20035;-72
2021/01/08 00:33:18;;;;;;;10.63;4.88;;;-1.80;99.90;;;;;;5050527;28;20028;-73
2021/01/08 00:35:44;;;;;;;7.22;3.33;;;-1.90;99.90;;;;;;5050816;28;20104;-73
2021/01/08 00:38:10;;;;;;;9.10;4.10;;;-1.90;99.90;;;;;;5031167;28;20037;-73
2021/01/08 00:40:36;;;;;;;8.50;4.00;;;-1.80;99.90;;;;;;5030572;28;20018;-72
2021/01/08 00:43:02;;;;;;;10.10;5.00;;;-1.90;99.90;;;;;;5030390;28;20099;-73
2021/01/08 00:45:27;;;;;;;7.60;3.43;;;-1.90;99.90;;;;;;5031058;28;20030;-73
2021/01/08 00:47:53;;;;;;;6.70;3.73;;;-2.00;99.90;;;;;;5030545;28;20109;-73
2021/01/08 00:50:19;;;;;;;9.17;3.40;;;-2.20;99.90;;;;;;5030520;28;20120;-73
2021/01/08 00:52:45;;;;;;;7.63;3.23;;;-2.20;99.90;;;;;;5030080;28;20543;-73
2021/01/08 00:55:11;;;;;;;8.93;4.70;;;-2.20;99.90;;;;;;5030814;28;20100;-73
2021/01/08 00:57:37;;;;;;;8.13;4.03;;;-1.90;99.90;;;;;;5030640;28;20029;-73
2021/01/08 01:00:05;;;;;;;7.27;3.77;;;-1.80;99.90;;;;;;5045880;28;20552;-73
2021/01/08 01:02:33;;;;;;;8.03;4.33;;;-1.90;99.90;;;;;;5035934;28;20116;-73
2021/01/08 01:04:58;;;;;;;8.97;5.53;;;-1.90;99.90;;;;;;5030692;28;20053;-73
2021/01/08 01:07:24;;;;;;;8.13;4.07;;;-1.80;99.90;;;;;;5030294;28;20083;-73
2021/01/08 01:09:49;;;;;;;6.60;3.40;;;-1.80;99.90;;;;;;5030456;28;20033;-73
2021/01/08 01:12:15;;;;;;;8.00;3.63;;;-1.90;99.90;;;;;;5035039;28;20029;-75
2021/01/08 01:14:41;;;;;;;5.97;3.53;;;-2.10;99.90;;;;;;5037981;28;20476;-73
2021/01/08 01:17:06;;;;;;;7.60;4.23;;;-2.20;99.90;;;;;;5030164;28;20482;-73
2021/01/08 01:19:32;;;;;;;6.43;3.47;;;-2.00;99.90;;;;;;5039120;28;20144;-73
2021/01/08 01:21:58;;;;;;;7.27;3.47;;;-2.10;99.90;;;;;;5030369;28;20552;-73
2021/01/08 01:24:23;;;;;;;6.37;3.80;;;-2.30;99.90;;;;;;5030229;28;20127;-73
2021/01/08 01:26:55;;;;;;;8.27;3.40;;;-2.00;99.90;;;;;;5045275;28;20030;-73
2021/01/08 01:29:22;;;;;;;7.57;4.07;;;-1.80;99.90;;;;;;5038829;28;20513;-73
2021/01/08 01:31:48;;;;;;;6.23;3.67;;;-2.10;99.90;;;;;;5026310;28;20480;-73
2021/01/08 01:34:14;;;;;;;6.73;3.43;;;-2.10;99.90;;;;;;5040806;28;20032;-73
2021/01/08 01:36:39;;;;;;;6.93;3.37;;;-2.10;99.90;;;;;;5030311;28;20021;-73
2021/01/08 01:39:05;;;;;;;6.43;3.13;;;-2.20;99.90;;;;;;5030397;28;20037;-73
2021/01/08 01:41:31;;;;;;;9.17;3.97;;;-2.20;99.90;;;;;;5030136;28;20033;-73
2021/01/08 01:43:58;;;;;;;7.10;4.25;;;-2.10;99.90;;;;;;5033146;28;20091;-74
2021/01/08 01:46:23;;;;;;;7.10;3.57;;;-2.10;99.90;;;;;;5029006;28;20397;-73
2021/01/08 01:48:49;;;;;;;7.83;4.00;;;-1.90;99.90;;;;;;5030004;28;20080;-73
2021/01/08 01:51:18;;;;;;;9.20;3.53;;;-2.00;99.90;;;;;;5029934;28;20030;-73
2021/01/08 01:53:44;;;;;;;9.23;3.80;;;-2.10;99.90;;;;;;5033190;28;20049;-73
2021/01/08 01:56:09;;;;;;;9.27;4.13;;;-1.90;99.90;;;;;;5035904;28;20512;-73
2021/01/08 01:58:35;;;;;;;7.90;3.77;;;-2.00;99.90;;;;;;5046507;28;20033;-73
2021/01/08 02:01:01;;;;;;;6.97;3.40;;;-2.10;99.90;;;;;;5051277;28;20428;-74
2021/01/08 02:03:35;;;;;;;5.82;3.10;;;-2.20;99.90;;;;;;5023780;28;20111;-73
2021/01/08 02:06:08;;;;;;;7.55;4.22;;;-2.40;99.90;;;;;;5033547;28;20029;-73
2021/01/08 02:08:39;;;;;;;7.67;4.17;;;-2.40;99.90;;;;;;5033497;28;20029;-73
2021/01/08 02:11:14;;;;;;;10.27;3.97;;;-2.40;99.90;;;;;;5033087;28;20565;-73
2021/01/08 02:14:02;;;;;;;5.80;3.20;;;-2.30;99.90;;;;;;5044118;28;20371;-73
2021/01/08 02:16:30;;;;;;;7.17;3.30;;;-2.20;99.90;;;;;;5032936;28;20158;-73
2021/01/08 02:18:56;;;;;;;9.57;4.00;;;-2.30;99.90;;;;;;5034229;28;20191;-73
2021/01/08 02:21:30;;;;;;;7.33;3.70;;;-2.60;99.90;;;;;;5033530;28;20130;-73
2021/01/08 02:23:56;;;;;;;6.73;3.30;;;-2.50;99.90;;;;;;5032744;28;20041;-73
2021/01/08 02:26:23;;;;;;;8.20;4.03;;;-2.50;99.90;;;;;;5032902;28;20032;-73
2021/01/08 02:28:49;;;;;;;9.30;3.20;;;-2.50;99.90;;;;;;5032884;28;20045;-73
2021/01/08 02:31:15;;;;;;;5.40;2.90;;;-2.50;99.90;;;;;;5034497;28;20164;-73
2021/01/08 02:33:41;;;;;;;7.53;3.50;;;-2.40;99.90;;;;;;5039024;28;20029;-73
2021/01/08 02:36:09;;;;;;;8.17;4.17;;;-2.40;99.90;;;;;;5043886;28;20104;-74
2021/01/08 02:38:35;;;;;;;7.00;3.20;;;-2.10;99.90;;;;;;5033285;28;20033;-73
2021/01/08 02:41:02;;;;;;;6.50;2.80;;;-2.30;99.90;;;;;;5032687;28;20022;-73
2021/01/08 02:43:31;;;;;;;7.73;3.83;;;-2.40;99.90;;;;;;5043101;28;20510;-73
2021/01/08 02:45:57;;;;;;;5.90;2.97;;;-2.30;99.90;;;;;;5034199;28;20586;-73
2021/01/08 02:48:23;;;;;;;6.77;4.00;;;-2.40;99.90;;;;;;5040625;28;20083;-73
2021/01/08 02:50:49;;;;;;;9.53;3.77;;;-2.50;99.90;;;;;;5040112;28;20036;-73
2021/01/08 02:53:18;;;;;;;7.73;3.57;;;-2.30;99.90;;;;;;5040803;28;20079;-73
2021/01/08 02:56:02;;;;;;;8.80;3.23;;;-2.40;99.90;;;;;;5033224;28;20491;-73
2021/01/08 02:58:29;;;;;;;6.68;3.58;;;-2.50;99.90;;;;;;5044795;28;20040;-73
2021/01/08 03:00:56;;;;;;;10.47;5.60;;;-2.40;99.90;;;;;;5033523;28;20100;-73
2021/01/08 03:03:23;;;;;;;6.77;2.93;;;-2.40;99.90;;;;;;5032743;28;20076;-73
2021/01/08 03:05:49;;;;;;;8.47;3.80;;;-2.60;99.90;;;;;;5033436;28;20029;-73
2021/01/08 03:08:15;;;;;;;6.37;3.53;;;-2.50;99.90;;;;;;5047759;28;20419;-73
2021/01/08 03:10:41;;;;;;;8.20;3.50;;;-2.50;99.90;;;;;;5033422;28;20033;-73
2021/01/08 03:13:09;;;;;;;8.70;4.80;;;-2.70;99.90;;;;;;5032033;28;20025;-73
2021/01/08 03:15:35;;;;;;;6.90;3.37;;;-2.40;99.90;;;;;;5044603;28;20029;-73
2021/01/08 03:18:01;;;;;;;7.93;4.07;;;-2.40;99.90;;;;;;5046336;28;20379;-72
2021/01/08 03:20:26;;;;;;;11.07;4.23;;;-2.30;99.90;;;;;;5050712;28;20036;-73
2021/01/08 03:22:52;;;;;;;7.87;3.87;;;-2.50;99.90;;;;;;5048888;28;20028;-73
2021/01/08 03:25:18;;;;;;;7.73;3.30;;;-2.40;99.90;;;;;;5031834;28;20029;-73
2021/01/08 03:27:44;;;;;;;6.97;3.73;;;-2.50;99.90;;;;;;5031517;28;20079;-73
2021/01/08 03:30:10;;;;;;;9.10;4.07;;;-2.70;99.90;;;;;;5049911;28;20534;-73
2021/01/08 03:32:36;;;;;;;7.50;4.83;;;-2.60;99.90;;;;;;5037631;28;20056;-73
2021/01/08 03:35:04;;;;;;;5.50;3.17;;;-2.50;99.90;;;;;;5015747;28;20484;-73
2021/01/08 03:37:30;;;;;;;7.10;3.77;;;-2.50;99.90;;;;;;5037119;28;20132;-73
2021/01/08 03:39:55;;;;;;;7.03;3.90;;;-2.40;99.90;;;;;;5048521;28;20045;-73
2021/01/08 03:42:21;;;;;;;8.83;3.90;;;-2.40;99.90;;;;;;5031648;28;20036;-73
2021/01/08 03:44:47;;;;;;;11.10;3.33;;;-2.30;99.90;;;;;;5044374;28;20022;-73
2021/01/08 03:47:12;;;;;;;8.73;5.00;;;-2.30;99.90;;;;;;5017299;28;20148;-73
2021/01/08 03:49:38;;;;;;;9.23;3.90;;;-2.40;99.90;;;;;;5036687;28;20048;-73
2021/01/08 03:52:08;;;;;;;10.20;5.77;;;-2.50;99.90;;;;;;5031210;28;20040;-73
2021/01/08 03:54:35;;;;;;;6.80;3.23;;;-2.50;99.90;;;;;;5031380;28;20091;-73
2021/01/08 03:57:01;;;;;;;6.23;3.20;;;-2.70;99.90;;;;;;5031136;28;20017;-73
2021/01/08 03:59:27;;;;;;;7.13;3.80;;;-2.50;99.90;;;;;;5031073;28;20391;-73
2021/01/08 04:01:52;;;;;;;7.80;3.47;;;-2.60;99.90;;;;;;5037168;28;20053;-73
2021/01/08 04:04:18;;;;;;;7.33;3.80;;;-2.60;99.90;;;;;;5032460;28;20029;-75
2021/01/08 04:06:44;;;;;;;6.77;3.10;;;-2.70;99.90;;;;;;5024572;28;20037;-73
2021/01/08 04:09:09;;;;;;;6.43;3.70;;;-3.00;99.90;;;;;;5028275;28;20038;-73
2021/01/08 04:11:35;;;;;;;9.63;3.37;;;-3.20;99.90;;;;;;5006701;28;20030;-73
2021/01/08 04:14:00;;;;;;;5.20;2.67;;;-3.30;99.90;;;;;;5024087;28;20035;-73
2021/01/08 04:16:36;;;;;;;7.10;3.13;;;-3.20;99.90;;;;;;5023835;28;20037;-73
2021/01/08 04:19:02;;;;;;;6.60;3.30;;;-3.20;99.90;;;;;;5037049;28;20032;-73
2021/01/08 04:21:28;;;;;;;8.50;4.23;;;-3.40;99.90;;;;;;5043829;28;20023;-74
2021/01/08 04:23:54;;;;;;;5.50;2.97;;;-3.40;99.90;;;;;;5026822;28;20029;-74
2021/01/08 04:26:20;;;;;;;7.70;4.07;;;-3.10;99.90;;;;;;5023982;28;20102;-73
2021/01/08 04:28:46;;;;;;;5.47;2.70;;;-2.90;99.90;;;;;;5032420;28;20543;-73
2021/01/08 04:31:13;;;;;;;8.77;4.40;;;-3.00;99.90;;;;;;5038004;28;20099;-73
2021/01/08 04:33:40;;;;;;;6.20;3.10;;;-3.20;99.90;;;;;;5032337;28;20025;-73
2021/01/08 04:36:08;;;;;;;9.37;3.17;;;-3.40;99.90;;;;;;5036664;28;20036;-74
2021/01/08 04:38:33;;;;;;;8.73;3.53;;;-3.40;99.90;;;;;;5035065;28;20041;-73
2021/01/08 04:40:59;;;;;;;5.90;3.57;;;-3.10;99.90;;;;;;5022360;28;20029;-73
2021/01/08 04:43:25;;;;;;;6.20;3.30;;;-3.00;99.90;;;;;;5023854;28;20026;-72
2021/01/08 04:45:51;;;;;;;5.87;3.10;;;-2.80;99.90;;;;;;5034066;28;20037;-76
2021/01/08 04:48:17;;;;;;;7.33;3.53;;;-2.50;99.90;;;;;;5030829;28;20105;-74
2021/01/08 04:50:45;;;;;;;9.83;4.40;;;-2.40;99.90;;;;;;5034355;28;20050;-73
2021/01/08 04:53:10;;;;;;;8.27;4.00;;;-2.60;99.90;;;;;;5028056;28;20026;-73
2021/01/08 04:55:37;;;;;;;6.53;2.87;;;-2.50;99.90;;;;;;5024046;28;20029;-73
2021/01/08 04:58:06;;;;;;;8.50;3.43;;;-2.60;99.90;;;;;;5035770;28;20034;-73
2021/01/08 05:00:31;;;;;;;8.40;3.40;;;-2.60;99.90;;;;;;5029124;28;20371;-73
2021/01/08 05:02:59;;;;;;;7.23;3.40;;;-2.60;99.90;;;;;;5041560;28;20024;-75
2021/01/08 05:05:24;;;;;;;7.33;3.77;;;-2.70;99.90;;;;;;5041735;28;20029;-73
2021/01/08 05:07:50;;;;;;;7.37;3.60;;;-2.70;99.90;;;;;;5043259;28;20115;-74
2021/01/08 05:10:15;;;;;;;6.13;3.00;;;-3.20;99.90;;;;;;5040335;28;20104;-73
2021/01/08 05:12:43;;;;;;;8.10;3.73;;;-3.20;99.90;;;;;;5043413;28;20052;-72
2021/01/08 05:15:12;;;;;;;6.50;2.90;;;-3.00;99.90;;;;;;5024582;28;20022;-73
2021/01/08 05:17:40;;;;;;;5.27;3.07;;;-3.10;99.90;;;;;;5023275;28;20026;-74
2021/01/08 05:20:06;;;;;;;8.37;3.30;;;-3.10;99.90;;;;;;5039411;28;20476;-73
2021/01/08 05:22:32;;;;;;;8.90;3.20;;;-3.00;99.90;;;;;;5027396;28;20199;-73
2021/01/08 05:25:05;;;;;;;11.00;3.73;;;-2.80;99.90;;;;;;5026577;28;20065;-75
2021/01/08 05:27:31;;;;;;;6.47;2.97;;;-2.90;99.90;;;;;;5025198;28;20134;-73
2021/01/08 05:30:12;;;;;;;8.13;3.13;;;-3.00;99.90;;;;;;5039812;28;20586;-76
2021/01/08 05:32:38;;;;;;;6.00;3.10;;;-2.80;99.90;;;;;;5039015;28;20037;-73
2021/01/08 05:35:04;;;;;;;8.20;3.33;;;-2.60;99.90;;;;;;5022066;28;20030;-73
2021/01/08 05:37:30;;;;;;;9.27;3.90;;;-2.50;99.90;;;;;;5045438;28;20035;-73
2021/01/08 05:40:00;;;;;;;6.83;2.80;;;-2.60;99.90;;;;;;5033510;28;20049;-73
2021/01/08 05:42:27;;;;;;;7.43;3.43;;;-2.50;99.90;;;;;;5025836;28;20649;-74
2021/01/08 05:44:53;;;;;;;6.47;3.60;;;-2.60;99.90;;;;;;5031897;28;20021;-73
2021/01/08 05:47:20;;;;;;;6.63;3.13;;;-2.40;99.90;;;;;;5042035;28;20508;-73
2021/01/08 05:49:49;;;;;;;5.70;3.00;;;-2.60;99.90;;;;;;5044566;28;20036;-74
2021/01/08 05:52:16;;;;;;;8.47;3.33;;;-2.90;99.90;;;;;;5042172;28;20364;-73
2021/01/08 05:54:43;;;;;;;7.70;3.37;;;-3.10;99.90;;;;;;5033393;28;20149;-74
2021/01/08 05:57:09;;;;;;;7.83;3.27;;;-3.30;99.90;;;;;;5027354;28;20052;-73
2021/01/08 05:59:35;;;;;;;7.20;2.90;;;-3.30;99.90;;;;;;5026801;28;20133;-73
2021/01/08 06:02:01;;;;;;;5.60;2.73;;;-3.20;99.90;;;;;;5026707;28;20060;-73
2021/01/08 06:04:30;;;;;;;8.67;3.70;;;-3.20;99.90;;;;;;5025611;28;20069;-75
2021/01/08 06:06:57;;;;;;;6.80;3.17;;;-2.90;99.90;;;;;;5031925;28;20037;-75
2021/01/08 06:09:23;;;;;;;7.27;2.67;;;-3.10;99.90;;;;;;5045139;28;20360;-76
2021/01/08 06:11:52;;;;;;;7.13;3.03;;;-3.00;99.90;;;;;;5047015;28;20021;-74
2021/01/08 06:14:18;;;;;;;6.57;3.60;;;-3.20;99.90;;;;;;5031711;28;20626;-73
2021/01/08 06:16:46;;;;;;;8.20;2.90;;;-3.30;99.90;;;;;;5026765;28;20040;-75
2021/01/08 06:19:14;;;;;;;6.37;3.17;;;-3.50;99.90;;;;;;5034306;28;20030;-73
2021/01/08 06:21:42;;;;;;;6.57;3.00;;;-3.10;99.90;;;;;;5039011;28;20079;-74
2021/01/08 06:24:12;;;;;;;6.20;3.13;;;-2.90;99.90;;;;;;5018156;28;20382;-75
2021/01/08 06:26:38;;;;;;;6.77;3.13;;;-3.00;99.90;;;;;;5034618;28;20025;-73
2021/01/08 06:29:17;;;;;;;8.70;3.50;;;-2.90;99.90;;;;;;5033985;28;20067;-73
2021/01/08 06:31:59;;;;;;;5.80;2.80;;;-3.30;99.90;;;;;;5034908;28;20026;-74
2021/01/08 06:34:30;;;;;;;7.67;3.80;;;-2.90;99.90;;;;;;5033874;28;20526;-73
2021/01/08 06:37:06;;;;;;;7.20;2.90;;;-2.70;99.90;;;;;;5046225;28;20108;-73
2021/01/08 06:39:40;;;;;;;8.33;3.33;;;-2.80;99.90;;;;;;5049793;28;20033;-73
2021/01/08 06:42:06;;;;;;;5.23;3.17;;;-3.10;99.90;;;;;;5046858;28;20152;-73
2021/01/08 06:44:32;;;;;;;5.40;2.63;;;-3.10;99.90;;;;;;5038733;28;20276;-73
2021/01/08 06:47:01;;;;;;;5.77;3.03;;;-3.00;99.90;;;;;;5026411;28;20030;-77
2021/01/08 06:49:30;;;;;;;6.37;2.77;;;-2.90;99.90;;;;;;5041709;28;20369;-73
2021/01/08 06:51:58;;;;;;;5.60;2.63;;;-3.00;99.90;;;;;;5031017;28;20029;-77
2021/01/08 06:54:27;;;;;;;8.17;3.53;;;-2.90;99.90;;;;;;5027466;28;20033;-72
2021/01/08 06:57:01;;;;;;;7.33;2.80;;;-2.90;99.90;;;;;;5029355;28;20146;-75
2021/01/08 06:59:32;;;;;;;6.88;3.05;;;-2.90;99.90;;;;;;5026193;28;20053;-73
2021/01/08 07:02:09;;;;;;;7.07;2.83;;;-3.00;99.90;;;;;;5025659;28;20984;-74
2021/01/08 07:04:38;;;;;;;5.43;3.03;;;-2.90;99.90;;;;;;5033993;28;20025;-72
2021/01/08 07:07:05;;;;;;;5.30;2.70;;;-2.90;99.90;;;;;;5044870;28;20104;-73
2021/01/08 07:09:35;;;;;;;7.27;3.07;;;-3.20;99.90;;;;;;5027886;28;20028;-72
2021/01/08 07:12:03;;;;;;;5.87;2.33;;;-3.50;99.90;;;;;;5036832;28;20033;-72
2021/01/08 07:14:29;;;;;;;6.00;2.70;;;-3.50;99.90;;;;;;5027270;28;20475;-72
2021/01/08 07:16:56;;;;;;;7.80;2.93;;;-3.40;99.90;;;;;;5043913;28;20115;-72
2021/01/08 07:19:29;;;;;;;6.37;3.10;;;-3.50;99.90;;;;;;5036528;28;20132;-72
2021/01/08 07:22:02;;;;;;;7.50;3.37;;;-3.30;99.90;;;;;;5044584;28;20029;-73
2021/01/08 07:24:33;;;;;;;7.00;3.37;;;-3.20;99.90;;;;;;5045276;28;20621;-72
2021/01/08 07:27:15;;;;;;;5.40;2.97;;;-3.30;99.90;;;;;;5029717;28;20056;-72
2021/01/08 07:29:55;;;;;;;6.73;3.23;;;-3.40;99.90;;;;;;5025764;28;20046;-73
2021/01/08 07:32:38;;;;;;;7.17;3.17;;;-3.60;99.90;;;;;;5024925;28;20029;-73
2021/01/08 07:35:26;;;;;;;6.10;3.10;;;-3.50;99.90;;;;;;5025527;28;20052;-74
2021/01/08 07:38:02;;;;;;;6.60;2.67;;;-3.50;99.90;;;;;;5028730;28;20560;-77
2021/01/08 07:40:38;;;;;;;7.63;3.07;;;-3.50;99.90;;;;;;5025272;28;20158;-72
2021/01/08 07:43:05;;;;;;;4.67;2.70;;;-3.70;99.90;;;;;;5030084;28;20021;-72
2021/01/08 07:45:54;;;;;;;5.53;2.80;;;-3.70;99.90;;;;;;5043322;28;20056;-73
2021/01/08 07:48:24;;;;;;;4.70;2.57;;;-3.90;99.90;;;;;;5025540;28;20491;-72
2021/01/08 07:51:05;;;;;;;5.07;2.40;;;-3.80;99.90;;;;;;5024788;28;20021;-73
2021/01/08 07:53:44;;;;;;;8.70;2.83;;;-3.70;99.90;;;;;;5025453;28;20109;-73
2021/01/08 07:56:26;;;;;;;5.90;2.73;;;-3.80;99.90;;;;;;5025162;28;20061;-73
2021/01/08 07:59:06;;;;;;;5.57;3.20;;;-3.70;99.90;;;;;;5035982;28;20672;-78
2021/01/08 08:01:33;;;;;;;5.67;2.90;;;-3.70;99.90;;;;;;5045900;28;20025;-79
2021/01/08 08:04:09;;;;;;;6.87;3.40;;;-3.70;99.90;;;;;;5036046;28;20033;-73
2021/01/08 08:06:39;;;;;;;8.70;2.97;;;-3.70;99.90;;;;;;5025642;28;20036;-74
2021/01/08 08:09:06;;;;;;;6.37;2.63;;;-3.60;99.90;;;;;;5026095;28;20037;-72
2021/01/08 08:11:35;;;;;;;7.30;3.40;;;-3.70;99.90;;;;;;5025457;28;20044;-72
2021/01/08 08:14:01;;;;;;;7.60;3.23;;;-3.70;99.90;;;;;;5025725;28;20639;-73
2021/01/08 08:16:38;;;;;;;6.43;3.17;;;-3.70;99.90;;;;;;5025986;28;20026;-74
2021/01/08 08:19:08;;;;;;;5.17;2.63;;;-3.60;99.90;;;;;;5024855;28;20125;-72
2021/01/08 08:21:34;;;;;;;6.73;3.37;;;-3.40;99.90;;;;;;5037592;28;20029;-73
2021/01/08 08:24:02;;;;;;;10.03;3.17;;;-3.30;99.90;;;;;;5045011;28;20033;-72
2021/01/08 08:26:30;;;;;;;7.13;2.70;;;-3.20;99.90;;;;;;5032038;28;20136;-73
2021/01/08 08:29:10;;;;;;;6.53;2.60;;;-3.20;99.90;;;;;;5037863;28;20142;-80
2021/01/08 08:31:38;;;;;;;5.47;2.80;;;-3.20;99.90;;;;;;5045250;28;20067;-82
2021/01/08 08:34:07;;;;;;;5.17;2.63;;;-3.00;99.90;;;;;;5045231;28;20158;-73
2021/01/08 08:36:33;;;;;;;7.17;3.63;;;-2.90;99.90;;;;;;5035055;28;20021;-72
2021/01/08 08:39:08;;;;;;;6.87;3.00;;;-2.90;99.90;;;;;;5026593;28;20041;-74
2021/01/08 08:41:39;;;;;;;6.00;2.93;;;-2.80;99.90;;;;;;5025497;28;20600;-79
2021/01/08 08:44:10;;;;;;;4.97;2.80;;;-3.10;99.90;;;;;;5040077;28;20036;-72
2021/01/08 08:46:43;;;;;;;6.30;3.10;;;-3.30;99.90;;;;;;5045914;28;20111;-73
2021/01/08 08:49:10;;;;;;;5.97;3.10;;;-3.30;99.90;;;;;;5041738;28;20033;-85
2021/01/08 08:51:42;;;;;;;7.90;3.50;;;-3.30;99.90;;;;;;5045332;28;20028;-73
2021/01/08 08:54:08;;;;;;;7.03;3.77;;;-3.30;99.90;;;;;;5042838;28;20055;-75
2021/01/08 08:56:37;;;;;;;5.53;3.30;;;-3.10;99.90;;;;;;5025629;28;20033;-72
2021/01/08 08:59:03;;;;;;;19.20;8.93;;;-3.00;99.90;;;;;;5030442;28;20048;-77
2021/01/08 09:01:39;;;;;;;7.30;3.50;;;-2.80;99.90;;;;;;5046889;28;20025;-74
2021/01/08 09:04:09;;;;;;;10.40;3.50;;;-3.00;99.90;;;;;;5039226;28;20040;-72
2021/01/08 09:06:37;;;;;;;8.17;4.10;;;-3.00;99.90;;;;;;5044077;28;20047;-72
2021/01/08 09:09:13;;;;;;;19.87;8.70;;;-3.00;99.90;;;;;;5029719;28;20039;-74
2021/01/08 09:11:49;;;;;;;52.57;22.17;;;-2.90;99.90;;;;;;5032565;28;20032;-73
2021/01/08 09:14:18;;;;;;;10.23;4.30;;;-3.00;99.90;;;;;;5049820;28;20098;-72
2021/01/08 09:16:51;;;;;;;48.10;22.63;;;-2.90;99.90;;;;;;5047437;28;20025;-74
2021/01/08 09:19:36;;;;;;;19.10;8.40;;;-2.80;99.90;;;;;;5047325;28;20128;-72
2021/01/08 09:22:05;;;;;;;62.27;25.37;;;-2.70;99.90;;;;;;5044742;28;20028;-79
2021/01/08 09:24:32;;;;;;;284.37;106.63;;;-2.80;99.90;;;;;;5049121;28;20029;-72
2021/01/08 09:27:04;;;;;;;125.50;47.43;;;-2.70;99.90;;;;;;5032025;28;20585;-84
2021/01/08 09:29:44;;;;;;;63.00;28.00;;;-2.60;99.90;;;;;;5028385;28;20113;-73
2021/01/08 09:32:28;;;;;;;100.83;42.63;;;-2.80;99.90;;;;;;5029199;28;20021;-77
2021/01/08 09:35:04;;;;;;;125.53;56.23;;;-2.80;99.90;;;;;;5029091;28;20022;-75
2021/01/08 09:37:40;;;;;;;52.87;27.10;;;-2.60;99.90;;;;;;5029191;28;20272;-72
2021/01/08 09:40:11;;;;;;;8.40;5.33;;;-2.60;99.90;;;;;;5029672;28;20041;-78
2021/01/08 09:42:37;;;;;;;29.30;14.93;;;-2.70;99.90;;;;;;5029988;28;20033;-73
2021/01/08 09:45:20;;;;;;;65.20;32.30;;;-2.80;99.90;;;;;;5029915;28;20427;-82
2021/01/08 09:47:46;;;;;;;38.13;18.17;;;-2.90;99.90;;;;;;5031015;28;20052;-74
2021/01/08 09:50:23;;;;;;;11.63;5.33;;;-2.70;99.90;;;;;;5028698;28;20025;-73
2021/01/08 09:52:49;;;;;;;39.57;18.13;;;-2.90;99.90;;;;;;5028601;28;20116;-73
2021/01/08 09:55:31;;;;;;;145.10;63.13;;;-2.80;99.90;;;;;;5028728;28;20028;-73
2021/01/08 09:57:59;;;;;;;108.00;42.17;;;-2.50;99.90;;;;;;5037600;28;20106;-73
2021/01/08 10:00:47;;;;;;;47.23;18.80;;;-2.50;99.90;;;;;;5028207;28;20450;-73
2021/01/08 10:03:20;;;;;;;31.57;12.20;;;-2.70;99.90;;;;;;5017193;28;20033;-73
2021/01/08 10:05:46;;;;;;;10.40;4.47;;;-2.80;99.90;;;;;;5027930;28;20040;-74
2021/01/08 10:08:23;;;;;;;5.30;2.80;;;-2.70;99.90;;;;;;5039349;28;20033;-75
2021/01/08 10:10:49;;;;;;;35.20;16.07;;;-2.50;99.70;;;;;;5018142;28;20726;-73
2021/01/08 10:13:16;;;;;;;473.43;202.77;;;-2.50;99.50;;;;;;5044988;28;20104;-75
2021/01/08 10:16:10;;;;;;;80.00;39.37;;;-2.50;99.90;;;;;;5034243;28;20040;-72
2021/01/08 10:18:37;;;;;;;26.20;14.07;;;-2.50;99.90;;;;;;5028147;28;20538;-73
2021/01/08 10:21:04;;;;;;;161.87;64.43;;;-2.70;99.90;;;;;;5035192;28;20021;-76
2021/01/08 10:23:37;;;;;;;149.83;59.93;;;-2.50;99.90;;;;;;5026330;28;20037;-73
2021/01/08 10:26:14;;;;;;;365.27;146.27;;;-2.50;99.90;;;;;;5027971;28;20086;-74
2021/01/08 10:28:56;;;;;;;104.63;41.93;;;-2.50;99.90;;;;;;5014915;28;20088;-73
2021/01/08 10:31:23;;;;;;;36.43;17.47;;;-2.40;99.90;;;;;;5028418;28;20108;-72
2021/01/08 10:33:50;;;;;;;10.93;6.03;;;-2.50;99.90;;;;;;5043966;28;20032;-73
2021/01/08 10:36:15;;;;;;;12.70;6.27;;;-2.50;99.90;;;;;;5044572;28;20145;-78
2021/01/08 10:38:42;;;;;;;214.93;102.33;;;-2.40;99.90;;;;;;5027328;28;20480;-73
2021/01/08 10:41:08;;;;;;;16.42;7.97;;;-2.30;99.90;;;;;;5040065;28;20055;-74
2021/01/08 10:43:34;;;;;;;5.30;3.13;;;-2.50;99.50;;;;;;5035435;28;20037;-74
2021/01/08 10:46:03;;;;;;;175.00;91.27;;;-2.20;98.60;;;;;;5027153;28;20116;-73
2021/01/08 10:48:30;;;;;;;22.33;12.87;;;-2.10;98.70;;;;;;5027197;28;20030;-73
2021/01/08 10:50:56;;;;;;;7.47;3.07;;;-2.10;98.50;;;;;;5027375;28;20036;-79
2021/01/08 10:53:22;;;;;;;4.63;2.60;;;-2.10;98.50;;;;;;5027467;28;20080;-73
2021/01/08 10:55:48;;;;;;;4.93;2.33;;;-2.00;98.70;;;;;;5027168;28;20025;-72
2021/01/08 10:58:16;;;;;;;129.87;55.57;;;-1.70;98.40;;;;;;5027199;28;20023;-72
2021/01/08 11:00:48;;;;;;;313.70;147.47;;;-1.50;98.00;;;;;;5026346;28;20068;-74
2021/01/08 11:03:14;;;;;;;252.23;116.30;;;-1.40;97.80;;;;;;5026591;28;20088;-73
2021/01/08 11:05:41;;;;;;;89.00;45.47;;;-1.30;98.60;;;;;;5027701;28;20064;-72
2021/01/08 11:08:08;;;;;;;38.87;19.43;;;-1.30;98.00;;;;;;5027590;28;20026;-75
2021/01/08 11:10:34;;;;;;;18.07;8.43;;;-1.10;98.90;;;;;;5029839;28;20395;-75
2021/01/08 11:13:00;;;;;;;13.03;6.80;;;-1.10;98.10;;;;;;5031795;28;20830;-75
2021/01/08 11:15:26;;;;;;;7.67;4.47;;;-0.90;98.10;;;;;;5045501;28;20055;-74
2021/01/08 11:17:52;;;;;;;272.80;129.43;;;-0.90;97.70;;;;;;5032408;28;20151;-73
2021/01/08 11:20:17;;;;;;;42.67;26.37;;;-0.90;98.00;;;;;;5026346;28;20508;-74
2021/01/08 11:22:43;;;;;;;21.43;13.27;;;-0.90;98.00;;;;;;5026303;28;20086;-79
2021/01/08 11:25:12;;;;;;;30.83;17.77;;;-0.80;97.20;;;;;;5033280;28;20033;-73
2021/01/08 11:27:38;;;;;;;20.70;12.03;;;-0.60;97.20;;;;;;5026527;28;20053;-72
2021/01/08 11:30:04;;;;;;;9.10;5.33;;;-0.50;97.20;;;;;;5026030;28;20026;-73
2021/01/08 11:32:30;;;;;;;8.00;3.47;;;-0.40;97.00;;;;;;5026421;28;20049;-73
2021/01/08 11:34:56;;;;;;;6.10;3.08;;;-0.20;97.00;;;;;;5034043;28;20126;-73
2021/01/08 11:37:21;;;;;;;9.07;3.78;;;-0.10;97.20;;;;;;5046198;28;20498;-73
2021/01/08 11:39:47;;;;;;;6.43;3.42;;;-0.20;96.60;;;;;;5041353;28;20633;-74
2021/01/08 11:42:13;;;;;;;8.18;3.50;;;-0.20;97.10;;;;;;5026071;28;20125;-82
2021/01/08 11:44:38;;;;;;;8.77;3.50;;;-0.20;97.40;;;;;;5027891;28;20040;-72
2021/01/08 11:47:04;;;;;;;6.40;2.97;;;0.00;96.80;;;;;;5027821;28;20032;-73
2021/01/08 11:49:30;;;;;;;7.13;3.55;;;0.00;96.40;;;;;;5046108;28;20028;-73
2021/01/08 11:51:58;;;;;;;65.53;39.55;;;-0.10;96.80;;;;;;5027100;28;20049;-73
2021/01/08 11:54:25;;;;;;;35.65;22.00;;;-0.20;97.50;;;;;;5025724;28;20569;-77
2021/01/08 11:56:51;;;;;;;21.42;12.75;;;-0.30;97.00;;;;;;5042692;28;20039;-79
2021/01/08 11:59:17;;;;;;;7.65;5.07;;;-0.20;96.20;;;;;;5045247;28;20492;-76
2021/01/08 12:01:42;;;;;;;9.57;4.93;;;-0.10;96.10;;;;;;5035949;28;20028;-73
2021/01/08 12:04:10;;;;;;;10.80;5.88;;;0.10;95.90;;;;;;5030286;28;20025;-78
2021/01/08 12:06:36;;;;;;;21.73;12.73;;;0.00;96.60;;;;;;5025958;28;20029;-74
2021/01/08 12:09:02;;;;;;;22.45;14.32;;;-0.20;96.80;;;;;;5025620;28;20091;-74
2021/01/08 12:11:28;;;;;;;13.70;9.02;;;-0.20;97.10;;;;;;5025909;28;20026;-72
2021/01/08 12:13:54;;;;;;;14.50;8.15;;;-0.10;97.00;;;;;;5028177;28;20036;-74
2021/01/08 12:16:25;;;;;;;18.27;12.45;;;-0.20;96.70;;;;;;5037165;28;20079;-73
2021/01/08 12:18:50;;;;;;;12.20;5.95;;;-0.20;96.20;;;;;;5032573;28;20563;-73
2021/01/08 12:21:16;;;;;;;12.05;6.85;;;-0.10;96.20;;;;;;5026778;28;20120;-73
2021/01/08 12:23:42;;;;;;;11.90;5.93;;;0.00;96.40;;;;;;5021388;28;20135;-73
2021/01/08 12:26:16;;;;;;;11.38;7.07;;;0.10;96.50;;;;;;5043196;28;20048;-83
2021/01/08 12:28:42;;;;;;;12.68;7.40;;;0.20;96.60;;;;;;5044680;28;20548;-74
2021/01/08 12:31:07;;;;;;;21.40;15.60;;;0.20;96.30;;;;;;5031321;28;20026;-74
2021/01/08 12:33:33;;;;;;;8.15;4.10;;;0.20;96.10;;;;;;5007754;28;20021;-74
2021/01/08 12:35:59;;;;;;;10.40;6.97;;;0.30;95.60;;;;;;5031534;28;20095;-74
2021/01/08 12:38:25;;;;;;;8.45;4.53;;;0.10;95.60;;;;;;5027445;28;20551;-74
2021/01/08 12:40:50;;;;;;;8.13;5.30;;;0.20;96.40;;;;;;5035902;28;20079;-73
2021/01/08 12:43:16;;;;;;;11.20;6.60;;;0.90;98.50;;;;;;5025264;28;20338;-73
2021/01/08 12:45:41;;;;;;;13.57;8.60;;;1.00;96.50;;;;;;5024357;28;20605;-74
2021/01/08 12:48:08;;;;;;;12.25;6.25;;;0.80;95.60;;;;;;5024471;28;20033;-79
2021/01/08 12:50:33;;;;;;;12.50;8.18;;;0.70;96.40;;;;;;5023394;28;20063;-76